createdAt,value
2023-06-17T00:01:20.889Z,17.66
2023-06-17T00:03:48.226Z,17.67
2023-06-17T00:06:15.645Z,17.65
2023-06-17T00:08:42.913Z,17.64
2023-06-17T00:11:11.246Z,17.63
2023-06-17T00:13:38.680Z,17.61
2023-06-17T00:16:07.311Z,17.56
2023-06-17T00:18:34.641Z,17.56
2023-06-17T00:21:03.239Z,17.54
2023-06-17T00:23:31.236Z,17.49
2023-06-17T00:25:58.548Z,17.50
2023-06-17T00:28:25.816Z,17.48
2023-06-17T00:30:53.202Z,17.47
2023-06-17T00:33:20.632Z,17.40
2023-06-17T00:35:48.075Z,17.33
2023-06-17T00:38:15.335Z,17.24
2023-06-17T00:40:42.573Z,17.18
2023-06-17T00:43:10.160Z,17.14
2023-06-17T00:45:40.610Z,17.04
2023-06-17T00:48:11.091Z,17.03
2023-06-17T00:50:40.908Z,16.95
2023-06-17T00:53:08.914Z,16.89
2023-06-17T00:55:37.090Z,16.83
2023-06-17T00:58:04.551Z,16.79
2023-06-17T01:00:32.155Z,16.73
2023-06-17T01:02:59.988Z,16.75
2023-06-17T01:05:28.361Z,16.72
2023-06-17T01:08:49.234Z,16.69
2023-06-17T01:11:22.272Z,16.72
2023-06-17T01:13:56.124Z,16.72
2023-06-17T01:16:26.669Z,16.72
2023-06-17T01:18:54.683Z,16.70
2023-06-17T01:21:23.423Z,16.69
2023-06-17T01:23:59.356Z,16.67
2023-06-17T01:26:29.453Z,16.66
2023-06-17T01:29:00.993Z,16.65
2023-06-17T01:31:28.868Z,16.62
2023-06-17T01:34:02.736Z,16.58
2023-06-17T01:36:36.421Z,16.56
2023-06-17T01:39:06.563Z,16.57
2023-06-17T01:41:54.277Z,16.50
2023-06-17T01:44:24.277Z,16.45
2023-06-17T01:46:54.200Z,16.36
2023-06-17T01:49:21.909Z,16.30
2023-06-17T01:51:49.245Z,16.23
2023-06-17T01:54:17.156Z,16.22
2023-06-17T01:56:44.607Z,16.15
2023-06-17T01:59:12.131Z,16.11
2023-06-17T02:01:39.425Z,16.04
2023-06-17T02:04:06.801Z,16.02
2023-06-17T02:06:34.228Z,15.94
2023-06-17T02:09:01.489Z,15.91
2023-06-17T02:11:29.037Z,15.86
2023-06-17T02:13:56.412Z,15.84
2023-06-17T02:16:24.817Z,15.79
2023-06-17T02:18:55.768Z,15.76
2023-06-17T02:21:23.382Z,15.74
2023-06-17T02:23:51.468Z,15.73
2023-06-17T02:26:19.044Z,15.72
2023-06-17T02:28:46.485Z,15.74
2023-06-17T02:31:14.816Z,15.73
2023-06-17T02:33:42.304Z,15.73
2023-06-17T02:36:13.014Z,15.75
2023-06-17T02:38:40.353Z,15.76
2023-06-17T02:41:07.717Z,15.73
2023-06-17T02:43:35.680Z,15.66
2023-06-17T02:46:03.087Z,15.67
2023-06-17T02:48:32.397Z,15.68
2023-06-17T02:50:59.739Z,15.68
2023-06-17T02:53:27.175Z,15.65
2023-06-17T02:55:55.104Z,15.65
2023-06-17T02:58:26.871Z,15.63
2023-06-17T03:00:55.988Z,15.59
2023-06-17T03:03:34.514Z,15.55
2023-06-17T03:06:06.586Z,15.54
2023-06-17T03:08:39.282Z,15.49
2023-06-17T03:11:07.685Z,15.49
2023-06-17T03:13:36.718Z,15.46
2023-06-17T03:16:08.669Z,15.45
2023-06-17T03:18:36.465Z,15.42
2023-06-17T03:21:12.469Z,15.42
2023-06-17T03:23:44.315Z,15.40
2023-06-17T03:26:11.588Z,15.40
2023-06-17T03:28:38.967Z,15.39
2023-06-17T03:31:06.940Z,15.34
2023-06-17T03:33:34.414Z,15.32
2023-06-17T03:36:01.825Z,15.33
2023-06-17T03:38:29.449Z,15.26
2023-06-17T03:40:56.751Z,15.27
2023-06-17T03:43:24.164Z,15.28
2023-06-17T03:45:51.594Z,15.26
2023-06-17T03:48:18.893Z,15.20
2023-06-17T03:50:47.488Z,15.19
2023-06-17T03:53:14.893Z,15.20
2023-06-17T03:55:42.776Z,15.18
2023-06-17T03:58:16.088Z,15.19
2023-06-17T04:00:44.264Z,15.21
2023-06-17T04:03:12.761Z,15.22
2023-06-17T04:05:41.942Z,15.22
2023-06-17T04:08:10.062Z,15.22
2023-06-17T04:10:37.908Z,15.19
2023-06-17T04:13:05.123Z,15.26
2023-06-17T04:15:32.479Z,15.25
2023-06-17T04:18:00.075Z,15.27
2023-06-17T04:20:28.369Z,15.23
2023-06-17T04:22:55.738Z,15.27
2023-06-17T04:25:24.088Z,15.27
2023-06-17T04:27:54.819Z,15.27
2023-06-17T04:30:26.391Z,15.28
2023-06-17T04:32:59.427Z,15.31
2023-06-17T04:35:30.950Z,15.36
2023-06-17T04:38:03.978Z,15.39
2023-06-17T04:40:33.360Z,15.45
2023-06-17T04:43:02.268Z,15.50
2023-06-17T04:45:31.699Z,15.53
2023-06-17T04:48:05.120Z,15.55
2023-06-17T04:50:35.054Z,15.57
2023-06-17T04:53:05.010Z,15.61
2023-06-17T04:55:37.896Z,15.66
2023-06-17T04:58:07.247Z,15.71
2023-06-17T05:01:00.785Z,15.75
2023-06-17T05:03:31.772Z,15.80
2023-06-17T05:05:59.023Z,15.82
2023-06-17T05:08:30.056Z,15.85
2023-06-17T05:10:59.511Z,15.91
2023-06-17T05:13:28.148Z,15.97
2023-06-17T05:15:56.373Z,16.03
2023-06-17T05:18:24.569Z,16.09
2023-06-17T05:20:52.252Z,16.18
2023-06-17T05:23:20.013Z,16.25
2023-06-17T05:25:47.486Z,16.36
2023-06-17T05:28:15.442Z,16.45
2023-06-17T05:30:44.237Z,16.60
2023-06-17T05:33:14.418Z,16.78
2023-06-17T05:35:41.868Z,16.93
2023-06-17T05:38:09.164Z,17.08
2023-06-17T05:40:37.186Z,17.25
2023-06-17T05:43:05.443Z,17.42
2023-06-17T05:45:32.817Z,17.48
2023-06-17T05:48:00.624Z,17.52
2023-06-17T05:50:30.173Z,17.56
2023-06-17T05:52:59.350Z,17.58
2023-06-17T05:55:26.710Z,17.61
2023-06-17T05:57:55.238Z,17.69
2023-06-17T06:00:23.597Z,17.77
2023-06-17T06:02:52.079Z,17.82
2023-06-17T06:05:19.986Z,17.85
2023-06-17T06:07:47.504Z,17.85
2023-06-17T06:10:17.261Z,17.89
2023-06-17T06:12:50.465Z,17.93
2023-06-17T06:15:17.967Z,18.01
2023-06-17T06:17:45.478Z,18.06
2023-06-17T06:20:13.888Z,18.14
2023-06-17T06:22:41.210Z,18.19
2023-06-17T06:25:08.912Z,18.23
2023-06-17T06:27:36.261Z,18.33
2023-06-17T06:30:05.872Z,18.39
2023-06-17T06:32:37.311Z,18.50
2023-06-17T06:35:05.857Z,18.63
2023-06-17T06:37:34.284Z,18.77
2023-06-17T06:40:02.459Z,18.90
2023-06-17T06:42:32.782Z,18.99
2023-06-17T06:45:29.177Z,19.06
2023-06-17T06:47:56.523Z,19.11
2023-06-17T06:50:24.200Z,19.22
2023-06-17T06:52:53.408Z,19.40
2023-06-17T06:55:21.047Z,19.49
2023-06-17T06:57:52.026Z,19.59
2023-06-17T07:00:19.808Z,19.67
2023-06-17T07:02:49.181Z,19.77
2023-06-17T07:05:17.265Z,19.77
2023-06-17T07:07:50.249Z,19.87
2023-06-17T07:10:17.881Z,19.98
2023-06-17T07:12:45.120Z,20.09
2023-06-17T07:15:13.302Z,20.18
2023-06-17T07:17:41.343Z,20.33
2023-06-17T07:20:09.783Z,20.40
2023-06-17T07:22:38.858Z,20.52
2023-06-17T07:25:07.074Z,20.66
2023-06-17T07:27:34.434Z,20.71
2023-06-17T07:30:01.748Z,20.76
2023-06-17T07:32:29.192Z,20.87
2023-06-17T07:34:58.404Z,20.96
2023-06-17T07:37:26.079Z,21.04
2023-06-17T07:39:53.442Z,21.09
2023-06-17T07:42:20.815Z,21.14
2023-06-17T07:44:48.094Z,21.19
2023-06-17T07:47:15.648Z,21.24
2023-06-17T07:49:43.010Z,21.41
2023-06-17T07:52:10.370Z,21.61
2023-06-17T07:54:37.895Z,21.74
2023-06-17T07:57:05.920Z,21.91
2023-06-17T07:59:33.256Z,22.06
2023-06-17T08:02:00.732Z,22.27
2023-06-17T08:04:27.994Z,22.58
2023-06-17T08:06:55.304Z,22.89
2023-06-17T08:09:22.585Z,23.40
2023-06-17T08:11:49.983Z,23.99
2023-06-17T08:14:18.295Z,24.58
2023-06-17T08:16:46.734Z,25.14
2023-06-17T08:19:14.509Z,25.72
2023-06-17T08:21:45.742Z,26.16
2023-06-17T08:24:25.821Z,26.61
2023-06-17T08:26:55.144Z,26.96
2023-06-17T08:29:23.527Z,27.28
2023-06-17T08:31:54.081Z,27.65
2023-06-17T08:34:25.220Z,28.08
2023-06-17T08:36:56.400Z,28.40
2023-06-17T08:39:26.150Z,28.68
2023-06-17T08:41:54.124Z,28.88
2023-06-17T08:44:25.785Z,29.10
2023-06-17T08:46:58.602Z,29.21
2023-06-17T08:49:27.941Z,29.23
2023-06-17T08:51:56.256Z,29.37
2023-06-17T08:54:27.089Z,29.52
2023-06-17T08:56:55.053Z,29.78
2023-06-17T08:59:22.394Z,30.13
2023-06-17T09:01:53.326Z,30.32
2023-06-17T09:04:23.212Z,30.31
2023-06-17T09:06:52.281Z,30.44
2023-06-17T09:09:20.147Z,30.54
2023-06-17T09:11:53.269Z,30.67
2023-06-17T09:14:26.307Z,30.67
2023-06-17T09:16:54.126Z,30.86
2023-06-17T09:19:24.443Z,30.96
2023-06-17T09:21:54.599Z,30.96
2023-06-17T09:24:33.533Z,30.96
2023-06-17T09:27:02.702Z,31.08
2023-06-17T09:29:31.117Z,31.17
2023-06-17T09:31:59.265Z,31.32
2023-06-17T09:34:30.221Z,31.41
2023-06-17T09:37:02.010Z,31.66
2023-06-17T09:39:32.696Z,31.67
2023-06-17T09:42:11.879Z,31.71
2023-06-17T09:44:47.792Z,31.75
2023-06-17T09:47:16.360Z,31.86
2023-06-17T09:49:45.041Z,31.92
2023-06-17T09:52:14.541Z,32.00
2023-06-17T09:54:43.860Z,32.09
2023-06-17T09:57:15.389Z,32.14
2023-06-17T09:59:45.214Z,32.03
2023-06-17T10:02:12.497Z,32.08
2023-06-17T10:04:39.769Z,32.04
2023-06-17T10:07:08.401Z,32.08
2023-06-17T10:09:36.873Z,32.27
2023-06-17T10:12:07.818Z,32.44
2023-06-17T10:14:36.412Z,32.51
2023-06-17T10:17:10.621Z,32.51
2023-06-17T10:19:50.457Z,32.46
2023-06-17T10:22:22.906Z,32.58
2023-06-17T10:24:51.119Z,32.66
2023-06-17T10:27:23.618Z,32.80
2023-06-17T10:29:51.314Z,32.79
2023-06-17T10:32:25.798Z,32.95
2023-06-17T10:35:13.172Z,33.03
2023-06-17T10:37:51.525Z,32.90
2023-06-17T10:40:29.107Z,32.86
2023-06-17T10:43:02.383Z,32.97
2023-06-17T10:45:57.000Z,32.98
2023-06-17T10:48:35.836Z,33.00
2023-06-17T10:51:12.978Z,33.09
2023-06-17T10:53:52.837Z,33.13
2023-06-17T10:56:20.228Z,33.09
2023-06-17T10:58:49.212Z,33.11
2023-06-17T11:01:16.586Z,33.25
2023-06-17T11:03:45.825Z,33.35
2023-06-17T11:06:14.572Z,33.54
2023-06-17T11:08:41.902Z,33.61
2023-06-17T11:11:18.090Z,33.58
2023-06-17T11:13:52.451Z,33.47
2023-06-17T11:16:20.277Z,33.39
2023-06-17T11:18:50.746Z,33.36
2023-06-17T11:21:19.148Z,33.30
2023-06-17T11:23:46.587Z,33.24
2023-06-17T11:26:15.040Z,33.29
2023-06-17T11:28:45.227Z,33.35
2023-06-17T11:31:12.827Z,33.23
2023-06-17T11:33:41.981Z,33.14
2023-06-17T11:36:15.136Z,33.06
2023-06-17T11:38:45.595Z,33.00
2023-06-17T11:41:13.060Z,33.07
2023-06-17T11:43:41.044Z,33.08
2023-06-17T11:46:08.772Z,32.95
2023-06-17T11:48:37.084Z,32.64
2023-06-17T11:51:04.696Z,32.40
2023-06-17T11:53:38.012Z,32.25
2023-06-17T11:56:10.150Z,32.17
2023-06-17T11:58:41.392Z,32.09
2023-06-17T12:01:10.903Z,32.01
2023-06-17T12:03:38.933Z,31.99
2023-06-17T12:06:06.786Z,31.98
2023-06-17T12:08:38.806Z,31.83
2023-06-17T12:11:29.088Z,31.59
2023-06-17T12:13:56.709Z,31.41
2023-06-17T12:16:37.256Z,31.34
2023-06-17T12:19:21.611Z,31.34
2023-06-17T12:21:49.142Z,31.42
2023-06-17T12:24:17.864Z,31.57
2023-06-17T12:26:45.574Z,31.60
2023-06-17T12:29:24.112Z,31.51
2023-06-17T12:31:53.113Z,31.46
2023-06-17T12:34:20.430Z,31.39
2023-06-17T12:36:48.389Z,31.42
2023-06-17T12:39:15.963Z,31.39
2023-06-17T12:41:44.587Z,31.32
2023-06-17T12:44:12.768Z,31.35
2023-06-17T12:46:42.263Z,31.25
2023-06-17T12:49:09.999Z,31.21
2023-06-17T12:51:37.439Z,31.36
2023-06-17T12:54:04.864Z,31.65
2023-06-17T12:56:32.442Z,31.84
2023-06-17T12:58:59.772Z,31.94
2023-06-17T13:01:27.112Z,32.05
2023-06-17T13:03:54.422Z,32.25
2023-06-17T13:06:21.773Z,32.42
2023-06-17T13:08:49.059Z,32.68
2023-06-17T13:11:16.694Z,32.89
2023-06-17T13:13:43.932Z,33.06
2023-06-17T13:16:11.267Z,33.32
2023-06-17T13:18:38.605Z,33.49
2023-06-17T13:21:05.849Z,33.63
2023-06-17T13:23:33.137Z,33.56
2023-06-17T13:26:04.694Z,33.64
2023-06-17T13:28:34.646Z,33.57
2023-06-17T13:31:03.128Z,33.54
2023-06-17T13:33:31.401Z,33.67
2023-06-17T13:35:59.433Z,33.72
2023-06-17T13:38:27.441Z,33.83
2023-06-17T13:40:55.361Z,33.99
2023-06-17T13:43:22.943Z,34.18
2023-06-17T13:45:51.729Z,34.31
2023-06-17T13:48:20.298Z,34.39
2023-06-17T13:50:48.366Z,34.35
2023-06-17T13:53:15.780Z,34.32
2023-06-17T13:55:43.530Z,34.34
2023-06-17T13:58:11.500Z,34.38
2023-06-17T14:00:38.797Z,34.45
2023-06-17T14:03:06.465Z,34.49
2023-06-17T14:05:34.099Z,34.47
2023-06-17T14:08:01.721Z,34.47
2023-06-17T14:10:29.060Z,34.40
2023-06-17T14:12:56.327Z,34.42
2023-06-17T14:15:23.763Z,34.43
2023-06-17T14:17:51.353Z,34.37
2023-06-17T14:20:19.882Z,34.30
2023-06-17T14:22:48.912Z,34.38
2023-06-17T14:25:16.639Z,34.51
2023-06-17T14:27:44.925Z,34.52
2023-06-17T14:30:15.598Z,34.51
2023-06-17T14:32:47.299Z,34.57
2023-06-17T14:35:19.066Z,34.53
2023-06-17T14:37:49.601Z,34.51
2023-06-17T14:40:18.262Z,34.55
2023-06-17T14:42:47.042Z,34.54
2023-06-17T14:45:17.169Z,34.55
2023-06-17T14:47:45.810Z,34.53
2023-06-17T14:50:13.450Z,34.35
2023-06-17T14:52:48.404Z,34.29
2023-06-17T14:55:16.346Z,34.17
2023-06-17T14:57:43.792Z,34.15
2023-06-17T15:00:12.712Z,34.08
2023-06-17T15:02:59.476Z,33.99
2023-06-17T15:05:32.204Z,33.91
2023-06-17T15:07:59.513Z,33.80
2023-06-17T15:10:26.866Z,33.75
2023-06-17T15:12:54.237Z,33.73
2023-06-17T15:15:21.779Z,33.73
2023-06-17T15:17:49.316Z,33.71
2023-06-17T15:20:17.247Z,33.57
2023-06-17T15:22:46.072Z,33.42
2023-06-17T15:25:13.476Z,33.37
2023-06-17T15:27:40.772Z,33.24
2023-06-17T15:30:09.307Z,33.07
2023-06-17T15:32:36.742Z,32.90
2023-06-17T15:35:04.789Z,32.74
2023-06-17T15:37:33.856Z,32.63
2023-06-17T15:40:02.588Z,32.52
2023-06-17T15:42:29.943Z,32.41
2023-06-17T15:44:57.368Z,32.26
2023-06-17T15:47:24.736Z,32.11
2023-06-17T15:49:52.125Z,31.89
2023-06-17T15:52:24.240Z,31.58
2023-06-17T15:54:57.091Z,31.39
2023-06-17T15:57:24.442Z,31.18
2023-06-17T15:59:51.887Z,30.89
2023-06-17T16:02:19.210Z,30.52
2023-06-17T16:04:51.246Z,30.15
2023-06-17T16:07:18.559Z,30.01
2023-06-17T16:09:49.403Z,29.94
2023-06-17T16:12:18.700Z,29.92
2023-06-17T16:14:47.436Z,29.90
2023-06-17T16:17:14.935Z,29.83
2023-06-17T16:19:42.307Z,29.81
2023-06-17T16:22:11.867Z,29.72
2023-06-17T16:24:42.211Z,29.68
2023-06-17T16:27:11.855Z,29.60
2023-06-17T16:29:39.879Z,29.44
2023-06-17T16:32:07.679Z,29.37
2023-06-17T16:34:35.213Z,29.30
2023-06-17T16:37:02.592Z,29.35
2023-06-17T16:39:30.374Z,29.39
2023-06-17T16:41:57.682Z,29.32
2023-06-17T16:44:25.993Z,29.27
2023-06-17T16:46:53.683Z,29.24
2023-06-17T16:49:21.086Z,29.24
2023-06-17T16:51:48.935Z,29.23
2023-06-17T16:54:16.291Z,29.20
2023-06-17T16:56:43.617Z,29.19
2023-06-17T16:59:12.022Z,29.17
2023-06-17T17:01:40.323Z,29.12
2023-06-17T17:04:13.466Z,29.13
2023-06-17T17:06:43.618Z,29.07
2023-06-17T17:09:11.143Z,28.97
2023-06-17T17:11:38.566Z,29.00
2023-06-17T17:14:05.948Z,28.96
2023-06-17T17:16:34.504Z,28.88
2023-06-17T17:19:01.891Z,28.79
2023-06-17T17:21:29.296Z,28.74
2023-06-17T17:23:56.664Z,28.70
2023-06-17T17:26:24.051Z,28.60
2023-06-17T17:28:51.327Z,28.55
2023-06-17T17:31:18.630Z,28.49
2023-06-17T17:33:45.931Z,28.44
2023-06-17T17:36:14.134Z,28.42
2023-06-17T17:38:42.780Z,28.39
2023-06-17T17:41:10.995Z,28.38
2023-06-17T17:43:39.245Z,28.37
2023-06-17T17:46:08.706Z,28.36
2023-06-17T17:48:36.402Z,28.32
2023-06-17T17:51:03.968Z,28.30
2023-06-17T17:53:31.962Z,28.28
2023-06-17T17:55:59.336Z,28.24
2023-06-17T17:58:26.611Z,28.18
2023-06-17T18:00:54.600Z,28.13
2023-06-17T18:03:21.974Z,28.03
2023-06-17T18:05:49.394Z,27.94
2023-06-17T18:08:16.697Z,27.87
2023-06-17T18:10:43.989Z,27.86
2023-06-17T18:13:11.212Z,27.87
2023-06-17T18:15:38.584Z,27.83
2023-06-17T18:18:06.140Z,27.79
2023-06-17T18:20:33.476Z,27.70
2023-06-17T18:23:01.832Z,27.67
2023-06-17T18:25:29.078Z,27.62
2023-06-17T18:27:56.358Z,27.57
2023-06-17T18:30:23.836Z,27.53
2023-06-17T18:32:51.264Z,27.49
2023-06-17T18:35:18.631Z,27.44
2023-06-17T18:37:46.195Z,27.42
2023-06-17T18:40:13.623Z,27.43
2023-06-17T18:42:40.993Z,27.42
2023-06-17T18:45:10.186Z,27.38
2023-06-17T18:47:37.991Z,27.35
2023-06-17T18:50:07.195Z,27.28
2023-06-17T18:52:34.530Z,27.14
2023-06-17T18:55:01.943Z,27.02
2023-06-17T18:57:29.367Z,26.92
2023-06-17T18:59:57.209Z,26.80
2023-06-17T19:02:26.509Z,26.68
2023-06-17T19:04:58.153Z,26.63
2023-06-17T19:07:25.494Z,26.56
2023-06-17T19:09:54.636Z,26.47
2023-06-17T19:12:22.110Z,26.45
2023-06-17T19:14:49.496Z,26.39
2023-06-17T19:17:16.795Z,26.37
2023-06-17T19:19:44.054Z,26.34
2023-06-17T19:22:11.328Z,26.35
2023-06-17T19:24:38.780Z,26.33
2023-06-17T19:27:06.356Z,26.33
2023-06-17T19:29:34.473Z,26.30
2023-06-17T19:32:01.907Z,26.25
2023-06-17T19:34:29.112Z,26.23
2023-06-17T19:36:56.447Z,26.19
2023-06-17T19:39:23.758Z,26.10
2023-06-17T19:41:51.012Z,26.07
2023-06-17T19:44:18.332Z,26.02
2023-06-17T19:46:45.789Z,25.97
2023-06-17T19:49:13.093Z,25.90
2023-06-17T19:51:40.437Z,25.85
2023-06-17T19:54:07.714Z,25.80
2023-06-17T19:56:35.083Z,25.74
2023-06-17T19:59:02.423Z,25.69
2023-06-17T20:01:29.787Z,25.65
2023-06-17T20:03:57.123Z,25.57
2023-06-17T20:06:26.513Z,25.50
2023-06-17T20:08:54.224Z,25.45
2023-06-17T20:11:25.638Z,25.39
2023-06-17T20:13:53.319Z,25.34
2023-06-17T20:16:21.102Z,25.31
2023-06-17T20:18:48.567Z,25.26
2023-06-17T20:21:18.881Z,25.20
2023-06-17T20:23:46.273Z,25.18
2023-06-17T20:26:13.687Z,25.14
2023-06-17T20:28:40.957Z,25.06
2023-06-17T20:31:09.079Z,25.00
2023-06-17T20:33:38.650Z,24.94
2023-06-17T20:36:06.794Z,24.87
2023-06-17T20:38:34.207Z,24.82
2023-06-17T20:41:01.666Z,24.73
2023-06-17T20:43:29.020Z,24.68
2023-06-17T20:45:56.488Z,24.59
2023-06-17T20:48:23.791Z,24.49
2023-06-17T20:50:51.341Z,24.40
2023-06-17T20:53:18.787Z,24.37
2023-06-17T20:55:46.217Z,24.31
2023-06-17T20:58:16.293Z,24.26
2023-06-17T21:00:43.579Z,24.23
2023-06-17T21:03:14.134Z,24.19
2023-06-17T21:05:41.676Z,24.16
2023-06-17T21:08:08.954Z,24.12
2023-06-17T21:10:36.377Z,24.11
2023-06-17T21:13:03.681Z,24.09
2023-06-17T21:15:31.109Z,24.05
2023-06-17T21:17:58.687Z,24.03
2023-06-17T21:20:26.079Z,24.01
2023-06-17T21:22:53.368Z,23.96
2023-06-17T21:25:22.202Z,23.93
2023-06-17T21:27:49.688Z,23.90
2023-06-17T21:30:19.802Z,23.84
2023-06-17T21:32:47.562Z,23.79
2023-06-17T21:35:18.299Z,23.77
2023-06-17T21:37:45.715Z,23.70
2023-06-17T21:40:13.376Z,23.66
2023-06-17T21:42:40.674Z,23.62
2023-06-17T21:45:11.315Z,23.58
2023-06-17T21:47:38.634Z,23.57
2023-06-17T21:50:07.331Z,23.52
2023-06-17T21:52:34.594Z,23.53
2023-06-17T21:55:03.365Z,23.53
2023-06-17T21:57:30.700Z,23.52
2023-06-17T21:59:58.067Z,23.51
2023-06-17T22:02:28.390Z,23.50
2023-06-17T22:04:55.705Z,23.48
2023-06-17T22:07:25.930Z,23.47
2023-06-17T22:09:53.188Z,23.45
2023-06-17T22:12:20.625Z,23.43
2023-06-17T22:14:47.891Z,23.40
2023-06-17T22:17:15.207Z,23.38
2023-06-17T22:19:42.500Z,23.34
2023-06-17T22:22:09.760Z,23.34
2023-06-17T22:24:38.799Z,23.32
2023-06-17T22:27:11.623Z,23.29
2023-06-17T22:29:39.063Z,23.27
2023-06-17T22:32:07.024Z,23.21
2023-06-17T22:34:36.354Z,23.24
2023-06-17T22:37:05.388Z,23.19
2023-06-17T22:39:36.082Z,23.19
2023-06-17T22:42:03.530Z,23.16
2023-06-17T22:44:30.893Z,23.12
2023-06-17T22:46:58.165Z,23.11
2023-06-17T22:49:25.583Z,23.07
2023-06-17T22:51:52.901Z,23.07
2023-06-17T22:54:20.184Z,23.07
2023-06-17T22:56:48.042Z,23.05
2023-06-17T22:59:15.614Z,23.05
2023-06-17T23:01:43.336Z,23.03
2023-06-17T23:04:10.763Z,23.01
2023-06-17T23:06:38.051Z,22.96
2023-06-17T23:09:07.678Z,22.97
2023-06-17T23:11:35.769Z,22.93
2023-06-17T23:14:03.102Z,22.92
2023-06-17T23:16:30.670Z,22.86
2023-06-17T23:19:02.554Z,22.89
2023-06-17T23:21:30.201Z,22.85
2023-06-17T23:23:58.175Z,22.85
2023-06-17T23:26:25.735Z,22.82
2023-06-17T23:28:53.315Z,22.80
2023-06-17T23:31:21.213Z,22.76
2023-06-17T23:33:48.457Z,22.71
2023-06-17T23:36:15.745Z,22.67
2023-06-17T23:38:43.021Z,22.63
2023-06-17T23:41:10.456Z,22.58
2023-06-17T23:43:37.709Z,22.54
2023-06-17T23:46:05.035Z,22.51
2023-06-17T23:48:32.694Z,22.48
2023-06-17T23:51:00.039Z,22.41
2023-06-17T23:53:27.313Z,22.41
2023-06-17T23:55:54.552Z,22.35
2023-06-17T23:58:21.812Z,22.30
